Aviation Digital Data Service (ADDS)

Output produced by METARs form (1735 UTC 21 September 2017)
found at http://www.aviationweather.gov/adds/metars/
 
KSEG 211653Z AUTO VRB03KT 10SM CLR 27/19 A3008 RMK AO2 SLP182 T02670194
KSEG 211553Z AUTO 00000KT 10SM CLR 26/19 A3009 RMK AO2 SLP185 T02610194
KSEG 211453Z AUTO 00000KT 10SM CLR 24/18 A3010 RMK AO2 SLP190 T02390183 58001
KSEG 211353Z AUTO 00000KT 10SM CLR 22/18 A3010 RMK AO2 SLP191 T02170178
KSEG 211253Z AUTO 00000KT 8SM CLR 18/17 A3010 RMK AO2 SLP192 T01830172
KSEG 211153Z AUTO 00000KT 5SM BR FEW002 15/15 A3010 RMK AO2 SLP192 T01500150 10150 20128 51008
KSEG 211117Z AUTO 00000KT 3SM BR BKN002 13/13 A3011 RMK AO2 T01330133
KSEG 211102Z AUTO 00000KT 4SM BR SCT002 13/13 A3010 RMK AO2 T01330133
KSEG 211053Z AUTO 00000KT 5SM BR CLR 13/13 A3010 RMK AO2 SLP190 T01330133
KSEG 211014Z AUTO 00000KT 4SM BR CLR 13/13 A3008 RMK AO2 T01330133
KSEG 210953Z AUTO 00000KT 2SM BR CLR 13/13 A3008 RMK AO2 SLP182 T01330133
KSEG 210853Z AUTO 00000KT 5SM BR CLR 14/14 A3007 RMK AO2 SLP180 T01390139 51013
KSEG 210851Z AUTO 00000KT 5SM BR CLR 14/14 A3007 RMK AO2
KSEG 210842Z AUTO 00000KT 2SM BR CLR 13/13 A3006 RMK AO2 T01330133
KSEG 210753Z AUTO 00000KT 4SM BR CLR 14/14 A3005 RMK AO2 SLP173 T01390139
KSEG 210653Z AUTO 00000KT 5SM BR CLR 14/14 A3003 RMK AO2 SLP167 T01390139
KSEG 210622Z AUTO 00000KT 5SM BR CLR 14/14 A3004 RMK AO2 T01440144
KSEG 210612Z AUTO 00000KT 2SM BR CLR 14/14 A3004 RMK AO2 T01440144
KSEG 210553Z AUTO 00000KT 5SM BR CLR 14/14 A3004 RMK AO2 SLP169 T01440144 10189 20144 51007
KSEG 210453Z AUTO 00000KT 6SM BR CLR 15/15 A3003 RMK AO2 SLP167 T01500150 402940128
KSEG 210353Z AUTO 00000KT 6SM BR CLR 16/16 A3003 RMK AO2 SLP165 T01560156
KSEG 210253Z AUTO 00000KT 8SM CLR 16/16 A3002 RMK AO2 SLP161 T01610156 53016
KSEG 210153Z AUTO 00000KT 9SM CLR 17/17 A3000 RMK AO2 SLP157 T01720172
KSEG 210053Z AUTO 01003KT 10SM CLR 18/18 A2998 RMK AO2 SLP150 T01830178
KSEG 202353Z AUTO 00000KT 10SM CLR 19/19 A2997 RMK AO2 SLP146 T01890189 10294 20189 53007
KSEG 202253Z AUTO 00000KT 9SM CLR 21/20 A2996 RMK AO2 SLP144 T02110200
KSEG 202153Z AUTO 34003KT 10SM CLR 28/17 A2995 RMK AO2 SLP140 T02780172
KSEG 202053Z AUTO VRB04KT 10SM CLR 29/18 A2995 RMK AO2 SLP138 T02890178 56008
KSEG 201953Z AUTO 01006KT 10SM CLR 29/17 A2995 RMK AO2 SLP138 T02940172
KSEG 201853Z AUTO 03007KT 10SM CLR 29/17 A2996 RMK AO2 SLP142 T02890167
KSEG 201753Z AUTO 03005KT 10SM CLR 28/17 A2997 RMK AO2 SLP146 T02830172 10283 20150 57012
KSEG 201653Z AUTO VRB06KT 10SM CLR 28/18 A2998 RMK AO2 SLP149 T02780178
KSEG 201553Z AUTO 33006KT 10SM CLR 26/18 A2999 RMK AO2 SLP154 T02610183
KSEG 201453Z AUTO 34007KT 10SM CLR 24/18 A3000 RMK AO2 SLP157 T02440178 50000
KSEG 201353Z AUTO 00000KT 10SM CLR 21/18 A3002 RMK AO2 SLP163 T02110178
KSEG 201253Z AUTO 00000KT 8SM CLR 18/17 A3001 RMK AO2 SLP162 T01830172
KSEG 201153Z AUTO 00000KT 5SM BR FEW002 14/14 A3000 RMK AO2 SLP159 T01440144 10144 20128 53012
KSEG 201142Z AUTO 00000KT 4SM BR FEW002 14/14 A3000 RMK AO2 T01390139
KSEG 201053Z AUTO 33003KT 5SM BR CLR 13/13 A2999 RMK AO2 SLP154 T01330133
KSEG 201002Z AUTO 33003KT 5SM BR CLR 13/13 A2998 RMK AO2 T01330133
KSEG 200953Z AUTO 00000KT 2SM BR CLR 13/13 A2997 RMK AO2 SLP148 T01280128
KSEG 200945Z AUTO 00000KT 1 3/4SM BR CLR 13/13 A2997 RMK AO2 T01330133
KSEG 200853Z AUTO 00000KT 4SM BR BKN110 14/14 A2997 RMK AO2 SLP146 T01390139 53001
KSEG 200753Z AUTO 00000KT 4SM BR CLR 14/14 A2996 RMK AO2 SLP143 T01390139
KSEG 200653Z AUTO 00000KT 4SM BR CLR 14/14 A2996 RMK AO2 SLP144 T01390139
KSEG 200553Z AUTO 00000KT 5SM BR CLR 14/14 A2997 RMK AO2 SLP145 T01440144 10178 20139 55004